sensor_id;sensor_type;location;lat;lon;timestamp;pressure;altitude;pressure_sealevel;temperature;humidity
47670;BME280;33408;52.062;11.722;2023-02-13T00:02:08;103403.44;;;7.73;100.00
47670;BME280;33408;52.062;11.722;2023-02-13T00:04:35;103403.78;;;7.82;100.00
47670;BME280;33408;52.062;11.722;2023-02-13T00:07:02;103399.44;;;7.81;100.00
47670;BME280;33408;52.062;11.722;2023-02-13T00:09:28;103398.63;;;7.82;100.00
47670;BME280;33408;52.062;11.722;2023-02-13T00:11:55;103399.53;;;7.84;100.00
47670;BME280;33408;52.062;11.722;2023-02-13T00:14:21;103397.00;;;7.86;100.00
47670;BME280;33408;52.062;11.722;2023-02-13T00:16:48;103398.09;;;7.69;100.00
47670;BME280;33408;52.062;11.722;2023-02-13T00:19:16;103400.47;;;7.87;100.00
47670;BME280;33408;52.062;11.722;2023-02-13T00:21:42;103395.97;;;7.81;100.00
47670;BME280;33408;52.062;11.722;2023-02-13T00:24:09;103388.41;;;7.87;100.00
47670;BME280;33408;52.062;11.722;2023-02-13T00:26:35;103393.41;;;7.81;100.00
47670;BME280;33408;52.062;11.722;2023-02-13T00:29:04;103399.59;;;7.86;100.00
47670;BME280;33408;52.062;11.722;2023-02-13T00:31:30;103398.97;;;7.93;100.00
47670;BME280;33408;52.062;11.722;2023-02-13T00:33:57;103398.06;;;7.91;100.00
47670;BME280;33408;52.062;11.722;2023-02-13T00:36:25;103390.47;;;7.96;100.00
47670;BME280;33408;52.062;11.722;2023-02-13T00:38:52;103398.16;;;7.94;100.00
47670;BME280;33408;52.062;11.722;2023-02-13T00:41:20;103387.94;;;7.97;100.00
47670;BME280;33408;52.062;11.722;2023-02-13T00:43:47;103385.44;;;7.75;100.00
47670;BME280;33408;52.062;11.722;2023-02-13T00:46:15;103388.13;;;7.78;100.00
47670;BME280;33408;52.062;11.722;2023-02-13T00:48:42;103392.59;;;7.83;100.00
47670;BME280;33408;52.062;11.722;2023-02-13T00:51:09;103387.56;;;7.87;100.00
47670;BME280;33408;52.062;11.722;2023-02-13T00:53:38;103390.19;;;7.88;100.00
47670;BME280;33408;52.062;11.722;2023-02-13T00:56:05;103387.50;;;7.85;100.00
47670;BME280;33408;52.062;11.722;2023-02-13T00:58:32;103395.31;;;7.87;100.00
47670;BME280;33408;52.062;11.722;2023-02-13T01:00:59;103390.91;;;7.84;100.00
47670;BME280;33408;52.062;11.722;2023-02-13T01:03:26;103388.22;;;7.81;100.00
47670;BME280;33408;52.062;11.722;2023-02-13T01:05:52;103392.66;;;7.85;100.00
47670;BME280;33408;52.062;11.722;2023-02-13T01:08:20;103391.84;;;7.86;100.00
47670;BME280;33408;52.062;11.722;2023-02-13T01:10:49;103389.38;;;7.89;100.00
47670;BME280;33408;52.062;11.722;2023-02-13T01:13:16;103388.38;;;7.85;100.00
47670;BME280;33408;52.062;11.722;2023-02-13T01:15:44;103393.16;;;7.75;100.00
47670;BME280;33408;52.062;11.722;2023-02-13T01:18:12;103391.75;;;7.83;100.00
47670;BME280;33408;52.062;11.722;2023-02-13T01:20:39;103392.28;;;7.74;100.00
47670;BME280;33408;52.062;11.722;2023-02-13T01:23:05;103391.06;;;7.64;100.00
47670;BME280;33408;52.062;11.722;2023-02-13T01:25:32;103392.44;;;7.55;100.00
47670;BME280;33408;52.062;11.722;2023-02-13T01:28:00;103389.44;;;7.66;100.00
47670;BME280;33408;52.062;11.722;2023-02-13T01:30:26;103391.00;;;7.63;100.00
47670;BME280;33408;52.062;11.722;2023-02-13T01:32:53;103383.81;;;7.78;100.00
47670;BME280;33408;52.062;11.722;2023-02-13T01:35:19;103385.31;;;7.72;100.00
47670;BME280;33408;52.062;11.722;2023-02-13T01:37:46;103382.84;;;7.75;100.00
47670;BME280;33408;52.062;11.722;2023-02-13T01:40:14;103383.66;;;7.74;100.00
47670;BME280;33408;52.062;11.722;2023-02-13T01:42:41;103379.00;;;7.63;100.00
47670;BME280;33408;52.062;11.722;2023-02-13T01:45:20;103375.78;;;7.71;100.00
47670;BME280;33408;52.062;11.722;2023-02-13T01:47:50;103378.22;;;7.66;100.00
47670;BME280;33408;52.062;11.722;2023-02-13T01:50:21;103378.25;;;7.67;100.00
47670;BME280;33408;52.062;11.722;2023-02-13T01:52:52;103367.63;;;7.58;100.00
47670;BME280;33408;52.062;11.722;2023-02-13T01:55:21;103367.06;;;7.67;100.00
47670;BME280;33408;52.062;11.722;2023-02-13T01:57:52;103368.91;;;7.70;100.00
47670;BME280;33408;52.062;11.722;2023-02-13T02:00:22;103367.72;;;7.61;100.00
47670;BME280;33408;52.062;11.722;2023-02-13T02:02:50;103373.03;;;7.66;100.00
47670;BME280;33408;52.062;11.722;2023-02-13T02:05:21;103369.72;;;7.69;100.00
47670;BME280;33408;52.062;11.722;2023-02-13T02:07:50;103372.78;;;7.58;100.00
47670;BME280;33408;52.062;11.722;2023-02-13T02:10:19;103364.25;;;7.61;100.00
47670;BME280;33408;52.062;11.722;2023-02-13T02:12:49;103361.63;;;7.59;100.00
47670;BME280;33408;52.062;11.722;2023-02-13T02:15:18;103367.94;;;7.67;100.00
47670;BME280;33408;52.062;11.722;2023-02-13T02:17:46;103359.88;;;7.58;100.00
47670;BME280;33408;52.062;11.722;2023-02-13T02:20:23;103363.28;;;7.57;100.00
47670;BME280;33408;52.062;11.722;2023-02-13T02:23:16;103367.50;;;7.55;100.00
47670;BME280;33408;52.062;11.722;2023-02-13T02:29:16;103369.28;;;7.34;100.00
47670;BME280;33408;52.062;11.722;2023-02-13T02:32:05;103360.44;;;7.27;100.00
47670;BME280;33408;52.062;11.722;2023-02-13T02:34:40;103366.25;;;7.21;100.00
47670;BME280;33408;52.062;11.722;2023-02-13T02:37:21;103365.66;;;7.28;100.00
47670;BME280;33408;52.062;11.722;2023-02-13T02:40:02;103367.75;;;7.39;100.00
47670;BME280;33408;52.062;11.722;2023-02-13T02:42:37;103360.72;;;7.35;100.00
47670;BME280;33408;52.062;11.722;2023-02-13T02:45:10;103360.03;;;7.16;100.00
47670;BME280;33408;52.062;11.722;2023-02-13T02:47:49;103366.25;;;7.21;100.00
47670;BME280;33408;52.062;11.722;2023-02-13T02:50:38;103370.81;;;7.28;100.00
47670;BME280;33408;52.062;11.722;2023-02-13T02:53:16;103370.22;;;7.36;100.00
47670;BME280;33408;52.062;11.722;2023-02-13T02:55:49;103366.69;;;7.34;100.00
47670;BME280;33408;52.062;11.722;2023-02-13T02:58:20;103364.53;;;7.44;100.00
47670;BME280;33408;52.062;11.722;2023-02-13T03:01:08;103367.91;;;7.43;100.00
47670;BME280;33408;52.062;11.722;2023-02-13T03:03:57;103369.03;;;7.50;100.00
47670;BME280;33408;52.062;11.722;2023-02-13T03:06:45;103368.16;;;7.49;100.00
47670;BME280;33408;52.062;11.722;2023-02-13T03:09:17;103368.72;;;7.41;100.00
47670;BME280;33408;52.062;11.722;2023-02-13T03:12:03;103371.47;;;7.47;100.00
47670;BME280;33408;52.062;11.722;2023-02-13T03:14:49;103365.03;;;7.34;100.00
47670;BME280;33408;52.062;11.722;2023-02-13T03:17:16;103370.22;;;7.36;100.00
47670;BME280;33408;52.062;11.722;2023-02-13T03:20:14;103358.59;;;7.24;100.00
47670;BME280;33408;52.062;11.722;2023-02-13T03:23:24;103360.91;;;7.17;100.00
47670;BME280;33408;52.062;11.722;2023-02-13T03:26:29;103362.03;;;7.23;100.00
47670;BME280;33408;52.062;11.722;2023-02-13T03:29:15;103364.72;;;7.26;100.00
47670;BME280;33408;52.062;11.722;2023-02-13T03:32:06;103371.75;;;7.08;100.00
47670;BME280;33408;52.062;11.722;2023-02-13T03:34:38;103372.16;;;7.19;100.00
47670;BME280;33408;52.062;11.722;2023-02-13T03:37:30;103374.09;;;7.24;100.00
47670;BME280;33408;52.062;11.722;2023-02-13T03:40:22;103368.00;;;7.22;100.00
47670;BME280;33408;52.062;11.722;2023-02-13T03:42:52;103364.84;;;7.07;100.00
47670;BME280;33408;52.062;11.722;2023-02-13T03:45:24;103365.59;;;6.82;100.00
47670;BME280;33408;52.062;11.722;2023-02-13T03:48:11;103367.28;;;6.81;100.00
47670;BME280;33408;52.062;11.722;2023-02-13T03:51:16;103371.56;;;6.81;100.00
47670;BME280;33408;52.062;11.722;2023-02-13T03:53:47;103375.59;;;6.74;100.00
47670;BME280;33408;52.062;11.722;2023-02-13T03:56:17;103382.69;;;6.80;100.00
47670;BME280;33408;52.062;11.722;2023-02-13T03:59:06;103383.31;;;6.74;100.00
47670;BME280;33408;52.062;11.722;2023-02-13T04:01:58;103388.31;;;6.92;100.00
47670;BME280;33408;52.062;11.722;2023-02-13T04:04:32;103384.41;;;7.02;100.00
47670;BME280;33408;52.062;11.722;2023-02-13T04:07:03;103385.38;;;7.04;100.00
47670;BME280;33408;52.062;11.722;2023-02-13T04:09:34;103373.81;;;6.94;100.00
47670;BME280;33408;52.062;11.722;2023-02-13T04:12:10;103377.06;;;6.90;100.00
47670;BME280;33408;52.062;11.722;2023-02-13T04:14:46;103375.09;;;6.83;100.00
47670;BME280;33408;52.062;11.722;2023-02-13T04:17:17;103373.88;;;6.74;100.00
47670;BME280;33408;52.062;11.722;2023-02-13T04:19:47;103376.63;;;6.79;100.00
47670;BME280;33408;52.062;11.722;2023-02-13T04:22:14;103378.75;;;6.67;100.00
47670;BME280;33408;52.062;11.722;2023-02-13T04:24:42;103368.19;;;6.61;100.00
47670;BME280;33408;52.062;11.722;2023-02-13T04:27:10;103380.88;;;6.56;100.00
47670;BME280;33408;52.062;11.722;2023-02-13T04:29:38;103374.34;;;6.64;100.00
47670;BME280;33408;52.062;11.722;2023-02-13T04:32:04;103373.72;;;6.70;100.00
47670;BME280;33408;52.062;11.722;2023-02-13T04:34:31;103370.00;;;6.63;100.00
47670;BME280;33408;52.062;11.722;2023-02-13T04:36:58;103370.00;;;6.63;100.00
47670;BME280;33408;52.062;11.722;2023-02-13T04:39:24;103376.41;;;6.52;100.00
47670;BME280;33408;52.062;11.722;2023-02-13T04:41:52;103368.06;;;6.57;100.00
47670;BME280;33408;52.062;11.722;2023-02-13T04:44:19;103367.31;;;6.60;100.00
47670;BME280;33408;52.062;11.722;2023-02-13T04:46:45;103372.19;;;6.75;100.00
47670;BME280;33408;52.062;11.722;2023-02-13T04:49:12;103374.97;;;6.80;100.00
47670;BME280;33408;52.062;11.722;2023-02-13T04:51:39;103372.50;;;6.83;100.00
47670;BME280;33408;52.062;11.722;2023-02-13T04:54:05;103372.22;;;6.98;100.00
47670;BME280;33408;52.062;11.722;2023-02-13T04:56:32;103368.38;;;7.09;100.00
47670;BME280;33408;52.062;11.722;2023-02-13T04:59:00;103368.59;;;6.92;100.00
47670;BME280;33408;52.062;11.722;2023-02-13T05:01:26;103358.03;;;6.86;100.00
47670;BME280;33408;52.062;11.722;2023-02-13T05:03:53;103361.53;;;6.88;100.00
47670;BME280;33408;52.062;11.722;2023-02-13T05:06:19;103352.59;;;7.01;100.00
47670;BME280;33408;52.062;11.722;2023-02-13T05:08:46;103354.66;;;7.10;100.00
47670;BME280;33408;52.062;11.722;2023-02-13T05:11:13;103348.16;;;6.97;100.00
47670;BME280;33408;52.062;11.722;2023-02-13T05:13:39;103354.41;;;6.81;100.00
47670;BME280;33408;52.062;11.722;2023-02-13T05:16:07;103358.72;;;6.82;100.00
47670;BME280;33408;52.062;11.722;2023-02-13T05:18:34;103357.31;;;6.90;100.00
47670;BME280;33408;52.062;11.722;2023-02-13T05:21:00;103359.22;;;6.94;100.00
47670;BME280;33408;52.062;11.722;2023-02-13T05:23:44;103360.75;;;6.89;100.00
47670;BME280;33408;52.062;11.722;2023-02-13T05:26:11;103354.47;;;6.83;100.00
47670;BME280;33408;52.062;11.722;2023-02-13T05:28:37;103353.69;;;6.85;100.00
47670;BME280;33408;52.062;11.722;2023-02-13T05:31:22;103351.94;;;6.84;100.00
47670;BME280;33408;52.062;11.722;2023-02-13T05:33:48;103352.09;;;6.89;100.00
47670;BME280;33408;52.062;11.722;2023-02-13T05:36:15;103353.94;;;6.91;100.00
47670;BME280;33408;52.062;11.722;2023-02-13T05:38:41;103350.19;;;6.83;100.00
47670;BME280;33408;52.062;11.722;2023-02-13T05:41:08;103342.03;;;6.95;100.00
47670;BME280;33408;52.062;11.722;2023-02-13T05:43:37;103349.88;;;6.98;100.00
47670;BME280;33408;52.062;11.722;2023-02-13T05:46:06;103353.31;;;6.97;100.00
47670;BME280;33408;52.062;11.722;2023-02-13T05:48:34;103351.94;;;6.84;100.00
47670;BME280;33408;52.062;11.722;2023-02-13T05:51:01;103351.56;;;6.75;100.00
47670;BME280;33408;52.062;11.722;2023-02-13T05:53:28;103350.31;;;6.86;100.00
47670;BME280;33408;52.062;11.722;2023-02-13T05:55:55;103345.53;;;6.74;100.00
47670;BME280;33408;52.062;11.722;2023-02-13T05:58:21;103353.84;;;6.67;100.00
47670;BME280;33408;52.062;11.722;2023-02-13T06:00:48;103356.34;;;6.66;100.00
47670;BME280;33408;52.062;11.722;2023-02-13T06:03:15;103360.38;;;6.80;100.00
47670;BME280;33408;52.062;11.722;2023-02-13T06:05:42;103362.25;;;6.84;100.00
47670;BME280;33408;52.062;11.722;2023-02-13T06:08:09;103357.59;;;6.75;100.00
47670;BME280;33408;52.062;11.722;2023-02-13T06:10:36;103366.44;;;6.82;100.00
47670;BME280;33408;52.062;11.722;2023-02-13T06:13:02;103360.63;;;6.86;100.00
47670;BME280;33408;52.062;11.722;2023-02-13T06:15:29;103371.19;;;6.92;100.00
47670;BME280;33408;52.062;11.722;2023-02-13T06:17:56;103361.22;;;6.81;100.00
47670;BME280;33408;52.062;11.722;2023-02-13T06:20:22;103361.28;;;6.82;100.00
47670;BME280;33408;52.062;11.722;2023-02-13T06:22:51;103361.66;;;6.91;100.00
47670;BME280;33408;52.062;11.722;2023-02-13T06:25:18;103357.19;;;6.87;100.00
47670;BME280;33408;52.062;11.722;2023-02-13T06:27:45;103359.72;;;6.86;100.00
47670;BME280;33408;52.062;11.722;2023-02-13T06:30:13;103369.41;;;6.91;100.00
47670;BME280;33408;52.062;11.722;2023-02-13T06:32:39;103359.84;;;6.89;100.00
47670;BME280;33408;52.062;11.722;2023-02-13T06:35:07;103353.56;;;6.82;100.00
47670;BME280;33408;52.062;11.722;2023-02-13T06:37:34;103367.19;;;6.57;100.00
47670;BME280;33408;52.062;11.722;2023-02-13T06:40:02;103370.56;;;6.56;100.00
47670;BME280;33408;52.062;11.722;2023-02-13T06:42:29;103373.75;;;6.50;100.00
47670;BME280;33408;52.062;11.722;2023-02-13T06:44:56;103366.47;;;6.61;100.00
47670;BME280;33408;52.062;11.722;2023-02-13T06:47:22;103378.16;;;6.74;100.00
47670;BME280;33408;52.062;11.722;2023-02-13T06:49:49;103375.47;;;6.71;100.00
47670;BME280;33408;52.062;11.722;2023-02-13T06:52:16;103378.91;;;6.92;100.00
47670;BME280;33408;52.062;11.722;2023-02-13T06:54:42;103384.41;;;7.02;100.00
47670;BME280;33408;52.062;11.722;2023-02-13T06:57:10;103384.47;;;7.03;100.00
47670;BME280;33408;52.062;11.722;2023-02-13T06:59:36;103383.22;;;6.93;100.00
47670;BME280;33408;52.062;11.722;2023-02-13T07:02:03;103388.78;;;6.82;100.00
47670;BME280;33408;52.062;11.722;2023-02-13T07:04:30;103392.50;;;6.67;100.00
47670;BME280;33408;52.062;11.722;2023-02-13T07:06:57;103396.97;;;6.71;100.00
47670;BME280;33408;52.062;11.722;2023-02-13T07:09:23;103395.53;;;6.78;100.00
47670;BME280;33408;52.062;11.722;2023-02-13T07:11:50;103395.53;;;6.78;100.00
47670;BME280;33408;52.062;11.722;2023-02-13T07:14:18;103391.50;;;6.85;100.00
47670;BME280;33408;52.062;11.722;2023-02-13T07:16:44;103397.63;;;6.88;100.00
47670;BME280;33408;52.062;11.722;2023-02-13T07:19:11;103403.13;;;6.75;100.00
47670;BME280;33408;52.062;11.722;2023-02-13T07:21:38;103402.25;;;6.96;100.00
47670;BME280;33408;52.062;11.722;2023-02-13T07:24:04;103396.25;;;6.97;100.00
47670;BME280;33408;52.062;11.722;2023-02-13T07:26:31;103404.53;;;7.10;100.00
47670;BME280;33408;52.062;11.722;2023-02-13T07:28:58;103401.91;;;7.09;100.00
47670;BME280;33408;52.062;11.722;2023-02-13T07:31:31;103413.16;;;7.11;100.00
47670;BME280;33408;52.062;11.722;2023-02-13T07:33:58;103403.66;;;7.10;100.00
47670;BME280;33408;52.062;11.722;2023-02-13T07:36:24;103405.69;;;6.96;100.00
47670;BME280;33408;52.062;11.722;2023-02-13T07:38:51;103411.09;;;7.02;100.00
47670;BME280;33408;52.062;11.722;2023-02-13T07:41:19;103408.91;;;7.13;100.00
47670;BME280;33408;52.062;11.722;2023-02-13T07:43:45;103409.38;;;7.03;100.00
47670;BME280;33408;52.062;11.722;2023-02-13T07:46:12;103412.09;;;7.06;100.00
47670;BME280;33408;52.062;11.722;2023-02-13T07:48:40;103408.75;;;7.08;100.00
47670;BME280;33408;52.062;11.722;2023-02-13T07:51:06;103406.31;;;6.90;100.00
47670;BME280;33408;52.062;11.722;2023-02-13T07:53:33;103404.47;;;7.09;100.00
47670;BME280;33408;52.062;11.722;2023-02-13T07:56:04;103421.47;;;7.04;100.00
47670;BME280;33408;52.062;11.722;2023-02-13T07:58:30;103411.63;;;7.16;100.00
47670;BME280;33408;52.062;11.722;2023-02-13T08:00:57;103412.91;;;7.27;100.00
47670;BME280;33408;52.062;11.722;2023-02-13T08:03:23;103412.47;;;7.38;100.00
47670;BME280;33408;52.062;11.722;2023-02-13T08:05:51;103413.03;;;7.30;100.00
47670;BME280;33408;52.062;11.722;2023-02-13T08:08:18;103408.03;;;7.35;100.00
47670;BME280;33408;52.062;11.722;2023-02-13T08:10:44;103402.94;;;7.37;100.00
47670;BME280;33408;52.062;11.722;2023-02-13T08:13:28;103407.75;;;7.27;100.00
47670;BME280;33408;52.062;11.722;2023-02-13T08:15:55;103401.34;;;7.40;100.00
47670;BME280;33408;52.062;11.722;2023-02-13T08:18:21;103412.78;;;7.47;100.00
47670;BME280;33408;52.062;11.722;2023-02-13T08:20:48;103411.41;;;7.33;100.00
47670;BME280;33408;52.062;11.722;2023-02-13T08:23:16;103419.09;;;7.31;100.00
47670;BME280;33408;52.062;11.722;2023-02-13T08:25:43;103416.78;;;7.16;100.00
47670;BME280;33408;52.062;11.722;2023-02-13T08:28:09;103409.09;;;7.18;100.00
47670;BME280;33408;52.062;11.722;2023-02-13T08:30:36;103411.84;;;7.22;100.00
47670;BME280;33408;52.062;11.722;2023-02-13T08:33:03;103413.44;;;7.19;100.00
47670;BME280;33408;52.062;11.722;2023-02-13T08:35:29;103412.53;;;7.17;100.00
47670;BME280;33408;52.062;11.722;2023-02-13T08:37:56;103417.44;;;7.10;100.00
47670;BME280;33408;52.062;11.722;2023-02-13T08:40:27;103421.59;;;7.07;100.00
47670;BME280;33408;52.062;11.722;2023-02-13T08:42:58;103425.34;;;7.15;100.00
47670;BME280;33408;52.062;11.722;2023-02-13T08:45:25;103428.69;;;7.35;100.00
47670;BME280;33408;52.062;11.722;2023-02-13T08:47:54;103428.44;;;7.29;100.00
47670;BME280;33408;52.062;11.722;2023-02-13T08:50:21;103423.94;;;7.23;100.00
47670;BME280;33408;52.062;11.722;2023-02-13T08:52:48;103420.00;;;7.10;100.00
47670;BME280;33408;52.062;11.722;2023-02-13T08:55:14;103421.53;;;7.05;100.00
47670;BME280;33408;52.062;11.722;2023-02-13T08:57:42;103426.91;;;7.11;100.00
47670;BME280;33408;52.062;11.722;2023-02-13T09:00:10;103423.47;;;7.11;100.00
47670;BME280;33408;52.062;11.722;2023-02-13T09:02:36;103422.59;;;7.10;100.00
47670;BME280;33408;52.062;11.722;2023-02-13T09:05:03;103422.84;;;7.17;100.00
47670;BME280;33408;52.062;11.722;2023-02-13T09:07:30;103432.00;;;7.31;100.00
47670;BME280;33408;52.062;11.722;2023-02-13T09:09:57;103441.78;;;7.40;100.00
47670;BME280;33408;52.062;11.722;2023-02-13T09:12:23;103436.78;;;7.44;100.00
47670;BME280;33408;52.062;11.722;2023-02-13T09:14:51;103438.50;;;7.44;100.00
47670;BME280;33408;52.062;11.722;2023-02-13T09:17:18;103429.09;;;7.46;100.00
47670;BME280;33408;52.062;11.722;2023-02-13T09:19:44;103424.94;;;7.49;100.00
47670;BME280;33408;52.062;11.722;2023-02-13T09:22:11;103423.16;;;7.26;100.00
47670;BME280;33408;52.062;11.722;2023-02-13T09:24:39;103418.47;;;7.16;100.00
47670;BME280;33408;52.062;11.722;2023-02-13T09:27:06;103426.97;;;7.36;100.00
47670;BME280;33408;52.062;11.722;2023-02-13T09:29:33;103425.47;;;7.41;100.00
47670;BME280;33408;52.062;11.722;2023-02-13T09:32:01;103422.34;;;7.49;100.00
47670;BME280;33408;52.062;11.722;2023-02-13T09:34:27;103427.03;;;7.60;100.00
47670;BME280;33408;52.062;11.722;2023-02-13T09:36:54;103421.88;;;7.60;100.00
47670;BME280;33408;52.062;11.722;2023-02-13T09:39:20;103427.47;;;7.48;100.00
47670;BME280;33408;52.062;11.722;2023-02-13T09:41:49;103422.66;;;7.35;100.00
47670;BME280;33408;52.062;11.722;2023-02-13T09:44:19;103431.38;;;7.61;100.00
47670;BME280;33408;52.062;11.722;2023-02-13T09:47:08;103434.47;;;7.75;100.00
47670;BME280;33408;52.062;11.722;2023-02-13T09:49:42;103427.44;;;7.71;100.00
47670;BME280;33408;52.062;11.722;2023-02-13T09:52:09;103420.31;;;7.88;100.00
47670;BME280;33408;52.062;11.722;2023-02-13T09:54:36;103430.03;;;7.95;100.00
47670;BME280;33408;52.062;11.722;2023-02-13T09:57:07;103426.56;;;7.94;100.00
47670;BME280;33408;52.062;11.722;2023-02-13T09:59:45;103432.56;;;7.93;100.00
47670;BME280;33408;52.062;11.722;2023-02-13T10:02:32;103426.25;;;7.85;100.00
47670;BME280;33408;52.062;11.722;2023-02-13T10:05:14;103431.75;;;7.94;100.00
47670;BME280;33408;52.062;11.722;2023-02-13T10:07:48;103437.44;;;7.85;100.00
47670;BME280;33408;52.062;11.722;2023-02-13T10:10:25;103436.13;;;7.97;100.00
47670;BME280;33408;52.062;11.722;2023-02-13T10:13:07;103436.13;;;7.97;100.00
47670;BME280;33408;52.062;11.722;2023-02-13T10:15:42;103429.44;;;8.02;100.00
47670;BME280;33408;52.062;11.722;2023-02-13T10:18:16;103441.47;;;8.01;100.00
47670;BME280;33408;52.062;11.722;2023-02-13T10:20:46;103425.91;;;8.00;100.00
47670;BME280;33408;52.062;11.722;2023-02-13T10:23:20;103432.19;;;8.07;100.00
47670;BME280;33408;52.062;11.722;2023-02-13T10:25:52;103428.94;;;8.12;100.00
47670;BME280;33408;52.062;11.722;2023-02-13T10:28:27;103427.94;;;8.09;100.00
47670;BME280;33408;52.062;11.722;2023-02-13T10:31:00;103427.84;;;8.06;100.00
47670;BME280;33408;52.062;11.722;2023-02-13T10:33:34;103414.09;;;8.07;100.00
47670;BME280;33408;52.062;11.722;2023-02-13T10:36:06;103417.72;;;8.12;100.00
47670;BME280;33408;52.062;11.722;2023-02-13T10:38:42;103416.06;;;8.14;100.00
47670;BME280;33408;52.062;11.722;2023-02-13T10:41:21;103421.44;;;8.20;100.00
47670;BME280;33408;52.062;11.722;2023-02-13T10:43:56;103413.53;;;8.15;100.00
47670;BME280;33408;52.062;11.722;2023-02-13T10:46:32;103410.44;;;8.26;100.00
47670;BME280;33408;52.062;11.722;2023-02-13T10:49:13;103411.44;;;8.29;100.00
47670;BME280;33408;52.062;11.722;2023-02-13T10:51:51;103407.59;;;8.18;100.00
47670;BME280;33408;52.062;11.722;2023-02-13T10:54:30;103400.88;;;8.23;100.00
47670;BME280;33408;52.062;11.722;2023-02-13T10:57:08;103390.63;;;8.00;100.00
47670;BME280;33408;52.062;11.722;2023-02-13T10:59:48;103394.00;;;8.24;100.00
47670;BME280;33408;52.062;11.722;2023-02-13T11:02:23;103382.91;;;8.26;100.00
47670;BME280;33408;52.062;11.722;2023-02-13T11:04:57;103387.53;;;8.36;100.00
47670;BME280;33408;52.062;11.722;2023-02-13T11:07:25;103382.53;;;8.41;100.00
47670;BME280;33408;52.062;11.722;2023-02-13T11:09:55;103391.91;;;8.37;100.00
47670;BME280;33408;52.062;11.722;2023-02-13T11:12:26;103378.31;;;8.43;100.00
47670;BME280;33408;52.062;11.722;2023-02-13T11:14:55;103383.13;;;8.34;100.00
47670;BME280;33408;52.062;11.722;2023-02-13T11:17:23;103378.22;;;8.42;100.00
47670;BME280;33408;52.062;11.722;2023-02-13T11:19:53;103374.63;;;8.36;100.00
47670;BME280;33408;52.062;11.722;2023-02-13T11:22:30;103376.81;;;8.50;100.00
47670;BME280;33408;52.062;11.722;2023-02-13T11:25:01;103370.00;;;8.52;100.00
47670;BME280;33408;52.062;11.722;2023-02-13T11:27:31;103369.19;;;8.54;100.00
47670;BME280;33408;52.062;11.722;2023-02-13T11:30:01;103367.88;;;8.67;100.00
47670;BME280;33408;52.062;11.722;2023-02-13T11:32:30;103361.69;;;8.62;100.00
47670;BME280;33408;52.062;11.722;2023-02-13T11:35:20;103359.00;;;8.59;100.00
47670;BME280;33408;52.062;11.722;2023-02-13T11:38:10;103364.88;;;8.81;100.00
47670;BME280;33408;52.062;11.722;2023-02-13T11:40:37;103366.53;;;8.79;100.00
47670;BME280;33408;52.062;11.722;2023-02-13T11:43:06;103368.59;;;8.89;100.00
47670;BME280;33408;52.062;11.722;2023-02-13T11:45:33;103365.25;;;8.93;100.00
47670;BME280;33408;52.062;11.722;2023-02-13T11:48:07;103360.63;;;8.83;100.00
47670;BME280;33408;52.062;11.722;2023-02-13T11:50:36;103362.28;;;8.81;100.00
47670;BME280;33408;52.062;11.722;2023-02-13T11:53:05;103369.00;;;8.75;100.00
47670;BME280;33408;52.062;11.722;2023-02-13T11:55:34;103372.44;;;8.74;100.00
47670;BME280;33408;52.062;11.722;2023-02-13T11:58:03;103368.44;;;8.84;100.00
47670;BME280;33408;52.062;11.722;2023-02-13T12:00:32;103376.75;;;8.75;100.00
47670;BME280;33408;52.062;11.722;2023-02-13T12:03:04;103370.81;;;8.78;100.00
47670;BME280;33408;52.062;11.722;2023-02-13T12:06:02;103376.19;;;8.84;100.00
47670;BME280;33408;52.062;11.722;2023-02-13T12:08:32;103370.47;;;8.67;100.00
47670;BME280;33408;52.062;11.722;2023-02-13T12:10:59;103374.69;;;8.91;100.00
47670;BME280;33408;52.062;11.722;2023-02-13T12:13:30;103366.72;;;8.85;100.00
47670;BME280;33408;52.062;11.722;2023-02-13T12:16:00;103371.03;;;8.84;100.00
47670;BME280;33408;52.062;11.722;2023-02-13T12:18:31;103361.44;;;8.82;100.00
47670;BME280;33408;52.062;11.722;2023-02-13T12:21:04;103356.97;;;8.76;100.00
47670;BME280;33408;52.062;11.722;2023-02-13T12:23:41;103352.91;;;8.84;100.00
47670;BME280;33408;52.062;11.722;2023-02-13T12:26:23;103349.47;;;8.85;100.00
47670;BME280;33408;52.062;11.722;2023-02-13T12:29:16;103350.47;;;8.89;100.00
47670;BME280;33408;52.062;11.722;2023-02-13T12:31:54;103344.66;;;8.96;100.00
47670;BME280;33408;52.062;11.722;2023-02-13T12:35:01;103344.75;;;8.99;100.00
47670;BME280;33408;52.062;11.722;2023-02-13T12:37:48;103339.00;;;9.09;100.00
47670;BME280;33408;52.062;11.722;2023-02-13T12:40:31;103333.91;;;9.12;100.00
47670;BME280;33408;52.062;11.722;2023-02-13T12:43:14;103333.03;;;9.12;100.00
47670;BME280;33408;52.062;11.722;2023-02-13T12:45:48;103327.25;;;9.21;100.00
47670;BME280;33408;52.062;11.722;2023-02-13T12:48:33;103326.38;;;9.20;100.00
47670;BME280;33408;52.062;11.722;2023-02-13T12:51:17;103324.63;;;9.19;100.00
47670;BME280;33408;52.062;11.722;2023-02-13T12:53:59;103329.78;;;9.19;100.00
47670;BME280;33408;52.062;11.722;2023-02-13T12:56:44;103318.56;;;9.19;100.00
47670;BME280;33408;52.062;11.722;2023-02-13T12:59:17;103312.66;;;9.23;100.00
47670;BME280;33408;52.062;11.722;2023-02-13T13:02:16;103308.03;;;9.12;100.00
47670;BME280;33408;52.062;11.722;2023-02-13T13:04:57;103311.22;;;9.33;100.00
47670;BME280;33408;52.062;11.722;2023-02-13T13:07:46;103315.34;;;9.26;100.00